Time;durP1;ratioP1;P1;durP2;ratioP2;P2;SDS_P1;SDS_P2;PMS_P1;PMS_P2;Temp;Humidity;BMP_temperature;BMP_pressure;BME280_temperature;BME280_humidity;BME280_pressure;Samples;Min_cycle;Max_cycle;Signal;HPM_P1;HPM_P2
2022/11/06 00:01:16;;;;;;;9.17;3.87;;;;;;;8.95;100.00;101380.78;5223467;28;20029;-71
2022/11/06 00:03:50;;;;;;;13.13;4.03;;;;;;;8.86;100.00;101368.16;5248266;28;20018;-72
2022/11/06 00:09:13;;;;;;;7.37;3.03;;;;;;;8.90;100.00;101384.53;5234147;28;20396;-71
2022/11/06 00:11:47;;;;;;;10.87;3.20;;;;;;;8.75;100.00;101359.94;5234239;28;20025;-71
2022/11/06 00:14:18;;;;;;;7.90;3.20;;;;;;;8.79;100.00;101382.41;5234757;28;20061;-71
2022/11/06 00:16:49;;;;;;;9.47;3.67;;;;;;;8.80;100.00;101378.84;5233891;28;20131;-71
2022/11/06 00:19:21;;;;;;;7.70;3.17;;;;;;;8.83;100.00;101371.75;5232668;28;20116;-71
2022/11/06 00:21:52;;;;;;;9.67;3.40;;;;;;;8.78;100.00;101378.94;5248832;28;20135;-72
2022/11/06 00:24:23;;;;;;;11.23;3.33;;;;;;;8.64;100.00;101376.91;5231554;28;20542;-72
2022/11/06 00:26:54;;;;;;;11.13;3.47;;;;;;;8.41;100.00;101318.66;5225178;28;20036;-71
2022/11/06 00:29:26;;;;;;;10.13;4.47;;;;;;;8.58;100.00;101351.09;5233355;28;20479;-70
2022/11/06 00:31:57;;;;;;;8.60;3.57;;;;;;;8.63;100.00;101361.31;5212204;28;20030;-70
2022/11/06 00:34:28;;;;;;;9.13;3.27;;;;;;;8.57;100.00;101352.00;5211621;28;20087;-70
2022/11/06 00:36:59;;;;;;;9.27;3.70;;;;;;;8.64;100.00;101363.03;5213051;28;20618;-70
2022/11/06 00:39:30;;;;;;;9.30;3.53;;;;;;;8.61;100.00;101361.38;5213318;28;20471;-70
2022/11/06 00:42:02;;;;;;;9.97;3.47;;;;;;;8.62;100.00;101354.41;5215292;28;20400;-71
2022/11/06 00:44:33;;;;;;;11.43;3.43;;;;;;;8.48;100.00;101338.38;5235317;28;20033;-70
2022/11/06 00:47:04;;;;;;;9.73;3.43;;;;;;;8.51;100.00;101332.19;5234297;28;20037;-70
2022/11/06 00:49:36;;;;;;;13.87;4.03;;;;;;;8.51;100.00;101347.00;5232071;28;20105;-72
2022/11/06 00:52:07;;;;;;;10.43;3.27;;;;;;;8.43;100.00;101332.50;5233647;28;20033;-71
2022/11/06 00:54:38;;;;;;;13.83;3.70;;;;;;;8.55;100.00;101359.03;5231283;28;20025;-70
2022/11/06 00:57:10;;;;;;;9.60;3.20;;;;;;;8.54;100.00;101342.50;5233015;28;20092;-71
2022/11/06 00:59:41;;;;;;;12.43;3.50;;;;;;;8.52;100.00;101344.31;5232180;28;20029;-71
2022/11/06 01:02:13;;;;;;;10.77;3.17;;;;;;;8.56;100.00;101355.50;5246607;28;20041;-73
2022/11/06 01:04:44;;;;;;;7.73;3.37;;;;;;;8.55;100.00;101361.63;5232384;28;20516;-71
2022/11/06 01:07:15;;;;;;;10.43;2.83;;;;;;;8.47;100.00;101347.13;5232569;28;20065;-71
2022/11/06 01:09:46;;;;;;;12.33;3.03;;;;;;;8.48;100.00;101348.00;5230772;28;20065;-70
2022/11/06 01:12:18;;;;;;;11.00;2.87;;;;;;;8.46;100.00;101344.59;5231609;28;20047;-70
2022/11/06 01:14:49;;;;;;;9.43;2.83;;;;;;;8.44;100.00;101344.66;5231945;28;20025;-70
2022/11/06 01:17:20;;;;;;;16.33;4.30;;;;;;;8.41;100.00;101336.94;5232507;28;20030;-71
2022/11/06 01:19:51;;;;;;;8.93;3.10;;;;;;;8.50;100.00;101337.47;5231794;28;20029;-70
2022/11/06 01:22:23;;;;;;;8.50;3.37;;;;;;;8.41;100.00;101342.16;5232439;28;20107;-70
2022/11/06 01:24:54;;;;;;;6.97;2.70;;;;;;;8.39;100.00;101341.41;5232875;28;20040;-70
2022/11/06 01:27:25;;;;;;;14.03;3.43;;;;;;;8.29;100.00;101327.88;5232704;28;20033;-70
2022/11/06 01:29:57;;;;;;;9.93;3.27;;;;;;;8.36;100.00;101331.06;5232975;28;20033;-69
2022/11/06 01:32:28;;;;;;;10.20;3.63;;;;;;;8.28;100.00;101304.47;5233419;28;20056;-70
2022/11/06 01:34:59;;;;;;;6.67;2.90;;;;;;;8.33;100.00;101319.00;5231051;28;20096;-71
2022/11/06 01:37:30;;;;;;;11.63;2.80;;;;;;;8.43;100.00;101321.25;5231770;28;20139;-72
2022/11/06 01:40:02;;;;;;;9.63;3.77;;;;;;;8.39;100.00;101307.47;5218187;28;20480;-72
2022/11/06 01:42:34;;;;;;;18.23;3.90;;;;;;;8.39;100.00;101311.84;5214855;28;20832;-71
2022/11/06 01:45:28;;;;;;;8.60;3.20;;;;;;;8.43;100.00;101303.78;5232737;28;20405;-71
2022/11/06 01:48:00;;;;;;;12.27;2.83;;;;;;;8.37;100.00;101304.06;5214937;28;20036;-72
2022/11/06 01:50:31;;;;;;;15.30;3.57;;;;;;;8.40;100.00;101305.69;5239055;28;20018;-72
2022/11/06 01:53:03;;;;;;;10.30;3.50;;;;;;;8.43;100.00;101302.97;5227315;28;20025;-71
2022/11/06 01:55:39;;;;;;;9.63;3.13;;;;;;;8.62;100.00;101312.63;5243589;28;20022;-72
2022/11/06 01:58:16;;;;;;;12.63;3.17;;;;;;;8.57;100.00;101305.00;5231882;28;20116;-71
2022/11/06 02:00:48;;;;;;;7.67;3.20;;;;;;;8.57;100.00;101310.22;5247145;28;20026;-72
2022/11/06 02:03:19;;;;;;;10.53;3.57;;;;;;;8.61;100.00;101305.69;5245042;28;20033;-71
2022/11/06 02:05:51;;;;;;;8.83;3.33;;;;;;;8.59;100.00;101303.16;5234870;28;20040;-71
2022/11/06 02:08:24;;;;;;;11.83;3.43;;;;;;;8.60;100.00;101304.88;5232349;28;20488;-71
2022/11/06 02:10:55;;;;;;;9.40;2.90;;;;;;;8.59;100.00;101290.09;5223230;28;20065;-71
2022/11/06 02:14:00;;;;;;;12.00;3.00;;;;;;;8.70;100.00;101302.69;5210786;28;20029;-71
2022/11/06 02:17:05;;;;;;;8.73;3.00;;;;;;;8.70;100.00;101294.84;5209936;28;20072;-71
2022/11/06 02:19:39;;;;;;;;;;;;;;;8.78;100.00;101295.34;5209470;28;20469;-71
2022/11/06 02:22:24;;;;;;;7.77;2.67;;;;;;;8.77;100.00;101284.97;5212578;28;20348;-71
2022/11/06 02:25:12;;;;;;;8.73;2.50;;;;;;;8.78;100.00;101284.06;5234111;28;20466;-70
2022/11/06 02:27:50;;;;;;;10.60;3.13;;;;;;;8.74;100.00;101285.97;5233472;28;20127;-70
2022/11/06 02:30:21;;;;;;;11.83;3.10;;;;;;;8.63;100.00;101277.75;5235987;28;20033;-69
2022/11/06 02:33:02;;;;;;;16.57;3.63;;;;;;;8.73;100.00;101275.59;5234635;28;20112;-70
2022/11/06 02:35:37;;;;;;;8.47;1.90;;;;;;;8.67;100.00;101280.19;5236437;28;20053;-70
2022/11/06 02:38:13;;;;;;;7.17;3.07;;;;;;;8.66;100.00;101278.47;5220384;28;20514;-71
2022/11/06 02:40:55;;;;;;;10.33;3.20;;;;;;;8.68;100.00;101275.78;5215891;28;20096;-70
2022/11/06 02:43:34;;;;;;;11.03;3.77;;;;;;;8.62;100.00;101271.72;5221797;28;20103;-70
2022/11/06 02:46:12;;;;;;;11.03;3.37;;;;;;;8.58;100.00;101265.78;5218760;28;20041;-71
2022/11/06 02:48:50;;;;;;;11.27;3.03;;;;;;;8.56;100.00;101278.03;5232891;28;20049;-70
2022/11/06 02:51:26;;;;;;;7.70;2.90;;;;;;;8.61;100.00;101258.69;5226208;28;20026;-71
2022/11/06 02:54:02;;;;;;;7.87;2.53;;;;;;;8.57;100.00;101260.63;5232013;28;20514;-70
2022/11/06 02:56:36;;;;;;;8.17;2.87;;;;;;;8.64;100.00;101279.47;5246013;28;20029;-70
2022/11/06 02:59:16;;;;;;;7.95;2.47;;;;;;;8.61;100.00;101270.00;5222472;28;20493;-71
2022/11/06 03:01:57;;;;;;;12.77;2.97;;;;;;;8.62;100.00;101271.72;5229246;28;20037;-70
2022/11/06 03:04:36;;;;;;;11.77;2.43;;;;;;;8.65;100.00;101276.78;5232464;28;20029;-70
2022/11/06 03:07:15;;;;;;;9.77;2.57;;;;;;;8.62;100.00;101279.53;5222709;28;20046;-71
2022/11/06 03:09:47;;;;;;;11.13;2.83;;;;;;;8.69;100.00;101283.56;5234779;28;20041;-72
2022/11/06 03:12:35;;;;;;;7.17;2.60;;;;;;;8.65;100.00;101297.69;5225408;28;20037;-71
2022/11/06 03:15:40;;;;;;;7.47;2.20;;;;;;;8.73;100.00;101299.09;5214309;28;20044;-72
2022/11/06 03:18:19;;;;;;;9.27;2.40;;;;;;;8.71;100.00;101270.44;5213577;28;20040;-72
2022/11/06 03:21:20;;;;;;;11.63;3.10;;;;;;;8.68;100.00;101260.97;5214799;28;20029;-71
2022/11/06 03:23:56;;;;;;;9.43;3.23;;;;;;;8.63;100.00;101268.19;5218059;28;20017;-70
2022/11/06 03:26:35;;;;;;;9.67;2.77;;;;;;;8.69;100.00;101254.84;5235076;28;20028;-71
2022/11/06 03:29:20;;;;;;;7.00;2.40;;;;;;;8.66;100.00;101249.75;5235215;28;20045;-71
2022/11/06 03:32:06;;;;;;;8.60;2.67;;;;;;;8.61;100.00;101251.72;5228134;28;20496;-70
2022/11/06 03:34:49;;;;;;;11.70;3.40;;;;;;;8.60;100.00;101239.59;5213027;28;20029;-71
2022/11/06 03:37:32;;;;;;;9.43;2.40;;;;;;;8.50;100.00;101240.91;5228534;28;20037;-70
2022/11/06 03:40:10;;;;;;;11.40;2.30;;;;;;;8.49;100.00;101234.81;5233480;28;20025;-71
2022/11/06 03:42:43;;;;;;;10.63;2.73;;;;;;;8.45;100.00;101231.50;5233379;28;20053;-70
2022/11/06 03:45:20;;;;;;;8.97;2.67;;;;;;;8.51;100.00;101239.97;5225889;28;20042;-71
2022/11/06 03:48:18;;;;;;;13.70;2.90;;;;;;;8.44;100.00;101229.81;5219520;28;20029;-70
2022/11/06 03:51:03;;;;;;;9.43;2.60;;;;;;;8.54;100.00;101214.56;5220344;28;20029;-71
2022/11/06 03:53:45;;;;;;;11.30;3.13;;;;;;;8.50;100.00;101220.00;5223651;28;20117;-71
2022/11/06 03:56:31;;;;;;;13.33;3.10;;;;;;;8.54;100.00;101205.88;5234512;28;20030;-73
2022/11/06 03:59:05;;;;;;;7.40;2.67;;;;;;;8.57;100.00;101208.41;5234231;28;20040;-72
2022/11/06 04:01:43;;;;;;;14.85;3.10;;;;;;;8.60;100.00;101200.44;5226656;28;20030;-73
2022/11/06 04:04:25;;;;;;;9.03;3.23;;;;;;;8.55;100.00;101191.94;5218642;28;20101;-72
2022/11/06 04:07:03;;;;;;;9.20;2.93;;;;;;;8.60;100.00;101195.22;5232566;28;20057;-72
2022/11/06 04:15:23;;;;;;;7.43;2.27;;;;;;;8.69;100.00;101192.16;5233074;28;20511;-72
2022/11/06 04:17:54;;;;;;;13.97;3.20;;;;;;;8.68;100.00;101193.09;5233111;28;20041;-71
2022/11/06 04:23:31;;;;;;;11.70;2.70;;;;;;;8.71;100.00;101182.50;5234275;28;20033;-72
2022/11/06 04:29:17;;;;;;;9.17;2.17;;;;;;;8.68;100.00;101171.34;5213564;28;20034;-72
2022/11/06 04:32:00;;;;;;;8.57;2.43;;;;;;;8.65;100.00;101161.91;5210432;28;20096;-71
2022/11/06 04:35:00;;;;;;;6.70;2.23;;;;;;;8.65;100.00;101164.50;5212026;28;20033;-72
2022/11/06 04:37:37;;;;;;;8.70;2.90;;;;;;;8.60;100.00;101163.88;5228277;28;20121;-72
2022/11/06 04:40:32;;;;;;;10.33;3.10;;;;;;;8.60;100.00;101171.72;5225944;28;20082;-72
2022/11/06 04:43:41;;;;;;;6.60;2.50;;;;;;;8.63;100.00;101158.50;5233052;28;20366;-72
2022/11/06 04:46:20;;;;;;;13.13;3.23;;;;;;;8.63;100.00;101148.06;5235100;28;20088;-74
2022/11/06 04:48:53;;;;;;;11.07;2.30;;;;;;;8.56;100.00;101154.47;5216040;28;20057;-72
2022/11/06 04:51:29;;;;;;;10.70;2.87;;;;;;;8.61;100.00;101154.25;5247250;28;20112;-73
2022/11/06 04:54:01;;;;;;;9.27;2.37;;;;;;;8.63;100.00;101155.91;5221194;28;20025;-73
2022/11/06 04:56:34;;;;;;;8.10;2.70;;;;;;;8.62;100.00;101156.84;5218579;28;20029;-72
2022/11/06 04:59:06;;;;;;;9.17;3.50;;;;;;;8.59;100.00;101149.97;5232989;28;20069;-72
2022/11/06 05:01:37;;;;;;;10.40;2.17;;;;;;;8.56;100.00;101144.03;5233128;28;20064;-73
2022/11/06 05:04:10;;;;;;;8.73;2.10;;;;;;;8.59;100.00;101146.50;5231604;28;20473;-71
2022/11/06 05:06:41;;;;;;;7.43;2.57;;;;;;;8.42;100.00;101135.06;5216962;28;20032;-72
2022/11/06 05:09:13;;;;;;;12.20;3.00;;;;;;;8.53;100.00;101142.41;5239194;28;20033;-70
2022/11/06 05:11:44;;;;;;;9.67;3.00;;;;;;;8.48;100.00;101137.38;5212337;28;20092;-72
2022/11/06 05:14:16;;;;;;;8.50;2.37;;;;;;;8.46;100.00;101136.63;5214536;28;20048;-72
2022/11/06 05:16:48;;;;;;;8.50;2.70;;;;;;;8.48;100.00;101140.00;5232665;28;20176;-71
2022/11/06 05:19:20;;;;;;;10.80;2.30;;;;;;;8.43;100.00;101141.13;5232487;28;20029;-72
2022/11/06 05:24:41;;;;;;;8.80;2.60;;;;;;;8.42;100.00;101119.41;5229891;28;20137;-71
2022/11/06 05:27:12;;;;;;;10.93;2.23;;;;;;;8.42;100.00;101124.63;5211543;28;20105;-74
2022/11/06 05:29:44;;;;;;;8.97;3.10;;;;;;;8.44;100.00;101133.22;5222219;28;20033;-72
2022/11/06 05:32:15;;;;;;;7.60;2.20;;;;;;;8.43;100.00;101130.69;5231828;28;20041;-73
2022/11/06 05:34:46;;;;;;;10.53;2.20;;;;;;;8.41;100.00;101129.91;5225924;28;20041;-72
2022/11/06 05:37:17;;;;;;;8.90;2.53;;;;;;;8.42;100.00;101123.75;5212731;28;20088;-69
2022/11/06 05:39:49;;;;;;;8.43;2.63;;;;;;;8.47;100.00;101127.88;5212008;28;20049;-71
2022/11/06 05:42:20;;;;;;;5.23;2.37;;;;;;;8.43;100.00;101121.09;5227397;28;20117;-71
2022/11/06 05:44:51;;;;;;;6.83;2.37;;;;;;;8.43;100.00;101121.09;5212412;28;20088;-70
2022/11/06 05:47:23;;;;;;;8.40;2.60;;;;;;;8.39;100.00;101116.94;5211046;28;20037;-70
2022/11/06 05:49:54;;;;;;;6.57;3.00;;;;;;;8.32;100.00;101099.88;5211531;28;20048;-70
2022/11/06 05:52:25;;;;;;;7.70;1.97;;;;;;;8.42;100.00;101119.41;5213085;28;20045;-70
2022/11/06 05:54:56;;;;;;;7.87;2.20;;;;;;;8.44;100.00;101112.34;5212136;28;20034;-70
2022/11/06 05:57:28;;;;;;;10.23;2.53;;;;;;;8.34;100.00;101105.88;5227949;28;20107;-70
2022/11/06 05:59:59;;;;;;;10.53;2.60;;;;;;;8.43;100.00;101109.81;5229931;28;20091;-71
2022/11/06 06:02:30;;;;;;;7.40;2.27;;;;;;;8.42;100.00;101097.66;5233177;28;20018;-71
2022/11/06 06:05:02;;;;;;;12.93;2.73;;;;;;;8.39;100.00;101103.88;5226249;28;20041;-71
2022/11/06 06:07:34;;;;;;;12.00;3.50;;;;;;;8.30;100.00;101088.66;5216470;28;20041;-72
2022/11/06 06:10:06;;;;;;;10.87;3.20;;;;;;;8.35;100.00;101089.28;5249753;28;20053;-71
2022/11/06 06:12:38;;;;;;;5.10;2.20;;;;;;;8.38;100.00;101099.56;5236958;28;20029;-70
2022/11/06 06:15:10;;;;;;;10.83;2.57;;;;;;;8.40;100.00;101097.75;5235246;28;20041;-70
2022/11/06 06:17:41;;;;;;;6.30;2.57;;;;;;;8.42;100.00;101088.09;5233821;28;20654;-71
2022/11/06 06:20:13;;;;;;;8.63;2.70;;;;;;;8.43;100.00;101089.75;5236009;28;20456;-71
2022/11/06 06:22:52;;;;;;;6.30;2.53;;;;;;;8.43;100.00;101084.53;5239137;28;20021;-71
2022/11/06 06:25:25;;;;;;;7.60;2.20;;;;;;;8.39;100.00;101082.16;5237002;28;20379;-71
2022/11/06 06:27:57;;;;;;;7.43;2.30;;;;;;;8.42;100.00;101084.63;5235216;28;20033;-70
2022/11/06 06:30:28;;;;;;;9.43;2.83;;;;;;;8.42;100.00;101095.91;5236316;28;20593;-70
2022/11/06 06:33:04;;;;;;;9.93;2.23;;;;;;;8.47;100.00;101096.53;5235494;28;20025;-70
2022/11/06 06:35:35;;;;;;;7.93;2.37;;;;;;;8.39;100.00;101109.09;5236141;28;20044;-70
2022/11/06 06:38:06;;;;;;;9.10;2.10;;;;;;;8.42;100.00;101108.97;5216983;28;20030;-71
2022/11/06 06:40:37;;;;;;;6.30;2.13;;;;;;;8.30;100.00;101080.81;5220791;28;20029;-70
2022/11/06 06:43:09;;;;;;;6.17;2.13;;;;;;;8.44;100.00;101106.28;5227327;28;20030;-71
2022/11/06 06:45:40;;;;;;;8.83;2.40;;;;;;;8.38;100.00;101091.75;5214781;28;20136;-71
2022/11/06 06:48:11;;;;;;;6.93;3.07;;;;;;;8.33;100.00;101091.09;5218039;28;20025;-70
2022/11/06 06:50:43;;;;;;;10.63;3.20;;;;;;;8.47;100.00;101104.38;5234062;28;20037;-71
2022/11/06 06:53:14;;;;;;;8.00;2.60;;;;;;;8.40;100.00;101097.75;5235920;28;20101;-70
2022/11/06 06:55:45;;;;;;;6.53;2.43;;;;;;;8.47;100.00;101093.94;5235953;28;20137;-72
2022/11/06 06:58:16;;;;;;;13.23;2.90;;;;;;;8.45;100.00;101087.94;5213190;28;20033;-70
2022/11/06 07:00:48;;;;;;;7.27;2.27;;;;;;;8.48;100.00;101082.56;5224668;28;20037;-70
2022/11/06 07:03:19;;;;;;;7.50;2.40;;;;;;;8.42;100.00;101067.19;5232678;28;20025;-71
2022/11/06 07:05:50;;;;;;;6.73;1.90;;;;;;;8.53;100.00;101087.59;5220907;28;20742;-71
2022/11/06 07:08:22;;;;;;;8.43;2.37;;;;;;;8.54;100.00;101091.88;5233115;28;20124;-71
2022/11/06 07:11:07;;;;;;;8.03;2.23;;;;;;;8.60;100.00;101090.78;5219685;28;20046;-70
2022/11/06 07:13:38;;;;;;;10.83;3.07;;;;;;;8.65;100.00;101080.97;5238004;28;20119;-71
2022/11/06 07:16:10;;;;;;;9.13;2.27;;;;;;;8.71;100.00;101085.88;5224302;28;20109;-71
2022/11/06 07:18:42;;;;;;;6.63;2.07;;;;;;;8.74;100.00;101078.81;5214173;28;20070;-71
2022/11/06 07:21:13;;;;;;;8.00;2.10;;;;;;;8.75;100.00;101073.50;5216233;28;20061;-71
2022/11/06 07:23:45;;;;;;;6.23;2.23;;;;;;;8.85;100.00;101084.34;5214724;28;20197;-70
2022/11/06 07:26:17;;;;;;;9.20;2.10;;;;;;;8.85;100.00;101076.50;5228969;28;20033;-72
2022/11/06 07:28:48;;;;;;;10.40;1.70;;;;;;;8.94;100.00;101083.06;5232337;28;20130;-70
2022/11/06 07:31:19;;;;;;;9.17;2.23;;;;;;;8.94;100.00;101089.13;5235722;28;20100;-72
2022/11/06 07:33:50;;;;;;;7.53;1.63;;;;;;;8.98;100.00;101088.97;5226924;28;20029;-70
2022/11/06 07:36:22;;;;;;;8.27;2.77;;;;;;;9.03;100.00;101086.97;5235126;28;20097;-70
2022/11/06 07:38:53;;;;;;;5.43;2.60;;;;;;;9.05;100.00;101086.00;5230271;28;20150;-70
2022/11/06 07:41:24;;;;;;;7.10;1.87;;;;;;;9.12;100.00;101083.06;5250296;28;20388;-71
2022/11/06 07:43:56;;;;;;;11.60;2.50;;;;;;;9.00;100.00;101056.66;5234722;28;20468;-70
2022/11/06 07:46:27;;;;;;;6.50;1.97;;;;;;;9.22;100.00;101076.47;5236227;28;20513;-71
2022/11/06 07:48:58;;;;;;;8.97;3.40;;;;;;;9.22;100.00;101070.38;5230389;28;20040;-71
2022/11/06 07:51:29;;;;;;;8.53;2.30;;;;;;;9.26;100.00;101062.31;5221192;28;20032;-71
2022/11/06 07:54:01;;;;;;;7.70;2.30;;;;;;;9.30;100.00;101056.00;5233518;28;20034;-71
2022/11/06 07:56:32;;;;;;;8.90;2.30;;;;;;;9.31;100.00;101049.88;5231815;28;20025;-70
2022/11/06 07:59:04;;;;;;;6.13;1.80;;;;;;;9.39;100.00;101056.47;5234335;28;20021;-70
2022/11/06 08:01:35;;;;;;;4.33;1.90;;;;;;;9.44;100.00;101055.28;5248234;28;20029;-71
2022/11/06 08:04:06;;;;;;;10.37;2.37;;;;;;;9.38;100.00;101047.78;5246033;28;20053;-71
2022/11/06 08:06:38;;;;;;;7.60;2.23;;;;;;;9.46;100.00;101049.16;5232417;28;20030;-71
2022/11/06 08:09:09;;;;;;;8.00;1.90;;;;;;;9.50;100.00;101071.59;5228298;28;20068;-71
2022/11/06 08:11:40;;;;;;;9.20;2.47;;;;;;;9.49;100.00;101070.75;5233726;28;20403;-70
2022/11/06 08:14:12;;;;;;;7.80;2.93;;;;;;;9.53;100.00;101066.22;5231825;28;20033;-71
2022/11/06 08:16:43;;;;;;;6.77;1.67;;;;;;;9.51;100.00;101055.00;5232853;28;20041;-71
2022/11/06 08:19:14;;;;;;;4.90;2.20;;;;;;;9.51;100.00;101049.75;5232214;28;20037;-72
2022/11/06 08:21:47;;;;;;;6.50;2.00;;;;;;;9.54;100.00;101052.22;5233827;28;20041;-72
2022/11/06 08:24:18;;;;;;;7.70;2.60;;;;;;;9.56;100.00;101050.38;5231152;28;20029;-72
2022/11/06 08:26:50;;;;;;;5.00;1.67;;;;;;;9.55;100.00;101035.59;5230852;28;21136;-72
2022/11/06 08:29:21;;;;;;;7.27;1.80;;;;;;;9.64;100.00;101049.94;5230508;28;20029;-73
2022/11/06 08:31:52;;;;;;;7.00;2.00;;;;;;;9.62;100.00;101046.56;5229669;28;20391;-72
2022/11/06 08:34:24;;;;;;;10.27;2.83;;;;;;;9.60;100.00;101027.53;5232962;28;20029;-71
2022/11/06 08:36:55;;;;;;;13.20;2.70;;;;;;;9.70;100.00;101031.34;5232623;28;20065;-73
2022/11/06 08:39:26;;;;;;;7.17;2.20;;;;;;;9.76;100.00;101027.53;5231403;28;20468;-73
2022/11/06 08:41:57;;;;;;;6.80;1.83;;;;;;;9.84;100.00;101041.06;5227152;28;20116;-73
2022/11/06 08:44:29;;;;;;;5.60;2.03;;;;;;;9.90;100.00;101027.63;5217295;28;20030;-73
2022/11/06 08:47:00;;;;;;;10.93;2.73;;;;;;;9.92;100.00;101015.31;5222465;28;20048;-72
2022/11/06 08:49:31;;;;;;;7.63;1.87;;;;;;;10.08;100.00;101022.34;5235392;28;20029;-73
2022/11/06 08:52:03;;;;;;;4.23;1.53;;;;;;;10.09;100.00;101010.09;5241954;28;20104;-74
2022/11/06 08:54:34;;;;;;;4.27;1.63;;;;;;;10.23;100.00;100998.84;5241602;28;20392;-72
2022/11/06 08:57:05;;;;;;;10.43;2.17;;;;;;;10.35;100.00;101008.63;5235663;28;20087;-75
2022/11/06 08:59:36;;;;;;;7.17;2.30;;;;;;;10.40;100.00;101006.59;5233453;28;20468;-72
2022/11/06 09:02:12;;;;;;;6.47;2.33;;;;;;;10.46;100.00;101000.19;5228087;28;20052;-73
2022/11/06 09:04:44;;;;;;;10.37;2.13;;;;;;;10.55;100.00;100998.84;5230501;28;20053;-72
2022/11/06 09:07:15;;;;;;;7.00;1.80;;;;;;;10.62;100.00;101000.19;5230294;28;20558;-71
2022/11/06 09:09:46;;;;;;;6.53;1.97;;;;;;;10.64;100.00;100987.84;5231887;28;21429;-72
2022/11/06 09:12:18;;;;;;;5.73;1.87;;;;;;;10.63;100.00;100974.81;5229840;28;20025;-72
2022/11/06 09:14:49;;;;;;;8.03;1.50;;;;;;;10.70;100.00;100977.94;5231593;28;20028;-71
2022/11/06 09:17:22;;;;;;;9.40;2.20;;;;;;;10.75;100.00;100968.84;5230288;28;20485;-71
2022/11/06 09:19:54;;;;;;;6.80;1.70;;;;;;;10.87;100.00;100971.72;5230103;28;20030;-70
2022/11/06 09:22:25;;;;;;;7.03;1.90;;;;;;;10.95;100.00;100966.84;5232431;28;20032;-72
2022/11/06 09:24:56;;;;;;;8.67;2.30;;;;;;;11.26;100.00;100972.00;5231083;28;20034;-72
2022/11/06 09:27:28;;;;;;;5.93;1.70;;;;;;;11.74;100.00;100966.47;5216940;28;20428;-74
2022/11/06 09:29:59;;;;;;;4.13;1.37;;;;;;;12.19;100.00;100948.81;5228121;28;20550;-73
2022/11/06 09:32:30;;;;;;;7.67;1.77;;;;;;;12.27;100.00;100946.53;5228215;28;20516;-73
2022/11/06 09:35:02;;;;;;;7.07;1.80;;;;;;;11.94;100.00;100942.50;5210541;28;20477;-72
2022/11/06 09:37:33;;;;;;;5.73;1.77;;;;;;;11.91;100.00;100940.06;5212443;28;20040;-73
2022/11/06 09:40:05;;;;;;;6.60;1.50;;;;;;;11.84;100.00;100945.72;5210599;28;20030;-72
2022/11/06 09:43:03;;;;;;;6.57;2.30;;;;;;;11.91;100.00;100937.44;5211566;28;20061;-72
2022/11/06 09:45:38;;;;;;;6.83;1.60;;;;;;;11.85;100.00;100947.41;5221452;28;20443;-72
2022/11/06 09:48:09;;;;;;;4.00;1.60;;;;;;;11.79;100.00;100941.69;5230501;28;20375;-72
2022/11/06 09:50:50;;;;;;;6.13;1.87;;;;;;;11.88;100.00;100946.38;5231933;28;20033;-71
2022/11/06 09:53:38;;;;;;;5.37;1.50;;;;;;;11.88;100.00;100932.41;5232038;28;20442;-71
2022/11/06 09:56:12;;;;;;;5.07;1.30;;;;;;;11.77;100.00;100938.31;5231251;28;20033;-72
2022/11/06 09:58:44;;;;;;;6.88;1.83;;;;;;;11.71;100.00;100945.66;5230571;28;20052;-72
2022/11/06 10:01:20;;;;;;;8.90;1.60;;;;;;;11.68;100.00;100931.88;5229661;28;20021;-72
2022/11/06 10:03:59;;;;;;;6.60;1.60;;;;;;;11.77;100.00;100939.19;5231156;28;20022;-72
2022/11/06 10:06:32;;;;;;;7.97;1.60;;;;;;;11.81;100.00;100932.81;5231790;28;20049;-72
2022/11/06 10:09:05;;;;;;;7.30;1.57;;;;;;;12.06;100.00;100931.22;5231021;28;20060;-72
2022/11/06 10:12:02;;;;;;;4.37;1.63;;;;;;;12.20;100.00;100932.97;5231861;28;20025;-72
2022/11/06 10:15:07;;;;;;;7.13;1.53;;;;;;;12.20;100.00;100929.53;5231732;28;20392;-72
2022/11/06 10:17:53;;;;;;;;;;;;;;;12.36;100.00;100924.06;5211179;28;20384;-72
2022/11/06 10:20:41;;;;;;;6.37;2.00;;;;;;;12.16;100.00;100917.53;5244511;28;20380;-73
2022/11/06 10:23:15;;;;;;;3.80;1.50;;;;;;;12.08;100.00;100921.47;5229970;28;20080;-74
2022/11/06 10:25:58;;;;;;;5.40;1.52;;;;;;;12.16;100.00;100917.53;5228927;28;20504;-72
2022/11/06 10:28:57;;;;;;;5.23;2.00;;;;;;;12.10;100.00;100908.25;5229068;28;20041;-73
2022/11/06 10:31:34;;;;;;;5.63;1.67;;;;;;;12.05;100.00;100916.41;5231754;28;20486;-72
2022/11/06 10:34:29;;;;;;;5.80;2.13;;;;;;;12.20;100.00;100911.97;5234687;28;20400;-74
2022/11/06 10:37:07;;;;;;;7.80;1.60;;;;;;;12.06;100.00;100912.84;5233653;28;20017;-73
2022/11/06 10:39:39;;;;;;;9.83;2.23;;;;;;;11.99;100.00;100895.78;5229725;28;20121;-73
2022/11/06 10:42:20;;;;;;;6.80;1.87;;;;;;;11.99;100.00;100890.53;5231796;28;20136;-73
2022/11/06 10:44:58;;;;;;;4.97;1.73;;;;;;;12.09;100.00;100886.44;5237595;28;20025;-72
2022/11/06 10:47:39;;;;;;;6.20;2.03;;;;;;;12.19;100.00;100891.91;5232330;28;20037;-73
2022/11/06 10:50:13;;;;;;;4.33;1.40;;;;;;;12.15;100.00;100860.72;5236737;28;20021;-74
2022/11/06 10:53:03;;;;;;;8.60;2.08;;;;;;;12.30;100.00;100877.22;5236885;28;20044;-73
2022/11/06 10:55:55;;;;;;;12.57;1.87;;;;;;;12.36;100.00;100855.78;5235903;28;20072;-72
2022/11/06 10:58:29;;;;;;;6.07;1.73;;;;;;;12.46;100.00;100858.66;5217347;28;20037;-71
2022/11/06 11:01:03;;;;;;;8.07;2.10;;;;;;;12.43;100.00;100853.59;5215623;28;20045;-72
2022/11/06 11:03:39;;;;;;;6.23;2.23;;;;;;;12.44;100.00;100847.41;5219835;28;20022;-76
2022/11/06 11:06:11;;;;;;;4.97;1.90;;;;;;;12.51;100.00;100843.44;5235249;28;20283;-71
2022/11/06 11:08:50;;;;;;;7.03;2.13;;;;;;;12.54;100.00;100831.84;5226831;28;20026;-72
2022/11/06 11:11:24;;;;;;;7.47;2.60;;;;;;;12.49;100.00;100837.44;5234154;28;20130;-70
2022/11/06 11:13:55;;;;;;;7.97;2.28;;;;;;;12.55;100.00;100842.25;5237551;28;20049;-71
2022/11/06 11:16:43;;;;;;;6.13;1.90;;;;;;;12.66;100.00;100838.91;5218001;28;20611;-71
2022/11/06 11:19:21;;;;;;;9.23;1.70;;;;;;;12.37;100.00;100846.13;5230705;28;20144;-71
2022/11/06 11:21:58;;;;;;;5.23;1.37;;;;;;;12.40;100.00;100840.66;5230511;28;20827;-71
2022/11/06 11:24:30;;;;;;;6.47;1.80;;;;;;;12.26;100.00;100831.09;5225572;28;20437;-73
2022/11/06 11:27:05;;;;;;;4.93;1.80;;;;;;;12.27;100.00;100817.03;5234472;28;20116;-71
2022/11/06 11:29:49;;;;;;;9.70;2.20;;;;;;;12.26;100.00;100824.06;5229216;28;20076;-72
2022/11/06 11:32:20;;;;;;;8.32;1.80;;;;;;;12.14;100.00;100815.25;5229594;28;20025;-70
2022/11/06 11:34:55;;;;;;;5.87;1.23;;;;;;;12.20;100.00;100806.94;5233967;28;20021;-70
2022/11/06 11:37:29;;;;;;;7.13;1.50;;;;;;;12.19;100.00;100809.66;5227887;28;20057;-72
2022/11/06 11:40:21;;;;;;;8.73;2.03;;;;;;;12.27;100.00;100806.53;5232562;28;20038;-71
2022/11/06 11:42:52;;;;;;;5.80;1.73;;;;;;;12.13;100.00;100802.22;5221120;28;20083;-71
2022/11/06 11:45:24;;;;;;;10.30;2.10;;;;;;;12.13;100.00;100807.47;5230070;28;20574;-71
2022/11/06 11:48:11;;;;;;;10.83;2.37;;;;;;;12.12;100.00;100795.28;5233137;28;20021;-70
2022/11/06 11:50:43;;;;;;;4.93;1.83;;;;;;;12.13;100.00;100804.84;5230870;28;20124;-71
2022/11/06 11:53:19;;;;;;;6.77;1.70;;;;;;;12.22;100.00;100806.81;5222539;28;20116;-72
2022/11/06 11:55:53;;;;;;;5.97;1.40;;;;;;;12.20;100.00;100796.44;5231319;28;20029;-71
2022/11/06 11:58:27;;;;;;;11.05;2.15;;;;;;;12.24;100.00;100791.81;5228718;28;20413;-71
2022/11/06 12:01:04;;;;;;;6.73;1.83;;;;;;;12.15;100.00;100780.16;5234321;28;20556;-72
2022/11/06 12:03:45;;;;;;;6.13;1.70;;;;;;;12.20;100.00;100787.75;5220874;28;20034;-71
2022/11/06 12:06:19;;;;;;;8.00;2.43;;;;;;;12.01;100.00;100767.09;5234328;28;20116;-76
2022/11/06 12:08:53;;;;;;;7.03;2.22;;;;;;;11.91;100.00;100762.47;5233249;28;20137;-71
2022/11/06 12:11:28;;;;;;;7.18;2.38;;;;;;;11.92;100.00;100768.56;5234932;28;20512;-71
2022/11/06 12:14:18;;;;;;;;;;;;;;;12.17;100.00;100757.25;5233545;28;20034;-72
2022/11/06 12:16:52;;;;;;;6.97;2.10;;;;;;;12.15;100.00;100747.84;5229458;28;19913;-71